createdAt,value
2018-12-20T19:52:24.075Z,100600.89
2018-12-20T19:57:33.459Z,100590.52
2018-12-20T20:00:02.108Z,100577.86
2018-12-20T20:02:30.809Z,100574.61
2018-12-20T20:04:59.480Z,100571.41
2018-12-20T20:07:28.053Z,100560.78
2018-12-20T20:09:56.700Z,100563.05
2018-12-20T20:12:25.516Z,100552.82
2018-12-20T20:14:54.197Z,100542.56
2018-12-20T20:17:22.962Z,100533.05
2018-12-20T20:19:59.560Z,100520.13
2018-12-20T20:22:22.412Z,100519.73
2018-12-20T20:24:51.046Z,100519.34
2018-12-20T20:27:19.695Z,100513.78
2018-12-20T20:29:48.368Z,100505.58
2018-12-20T20:32:17.072Z,100502.58
2018-12-20T20:34:45.849Z,100498.67
2018-12-20T20:37:14.491Z,100490.11
2018-12-20T20:39:43.222Z,100487.06
2018-12-20T20:42:11.826Z,100477.10
2018-12-20T20:44:40.517Z,100480.09
2018-12-20T20:47:09.359Z,100470.59
2018-12-20T20:49:38.052Z,100468.84
2018-12-20T20:52:06.776Z,100469.69
2018-12-20T20:54:35.498Z,100457.89
2018-12-20T20:57:04.084Z,100454.37
2018-12-20T20:59:32.701Z,100443.97
2018-12-20T21:02:01.408Z,100430.05
2018-12-20T21:04:29.979Z,100427.90
2018-12-20T21:06:58.554Z,100420.45
2018-12-20T21:09:27.133Z,100407.08
2018-12-20T21:11:55.788Z,100404.48
2018-12-20T21:14:24.484Z,100406.69
2018-12-20T21:16:53.073Z,100398.43
2018-12-20T21:19:21.705Z,100394.98
2018-12-20T21:21:50.372Z,100388.08
2018-12-20T21:24:19.015Z,100384.18
2018-12-20T21:26:47.732Z,100378.61
2018-12-20T21:29:16.409Z,100373.41
2018-12-20T21:31:45.022Z,100371.72
2018-12-20T21:34:14.908Z,100363.06
2018-12-20T21:36:43.592Z,100362.25
2018-12-20T21:39:12.224Z,100356.10
2018-12-20T21:41:40.803Z,100343.55
2018-12-20T21:44:09.374Z,100342.73
2018-12-20T21:46:38.064Z,100338.28
2018-12-20T21:49:06.637Z,100333.08
2018-12-20T21:51:35.232Z,100324.72
2018-12-20T21:54:03.960Z,100320.81
2018-12-20T21:56:32.552Z,100327.72
2018-12-20T21:59:01.224Z,100312.10
2018-12-20T22:01:29.875Z,100311.16
2018-12-20T22:03:58.470Z,100307.64
2018-12-20T22:06:27.097Z,100302.05
2018-12-20T22:08:55.917Z,100301.14
2018-12-20T22:11:24.618Z,100298.08
2018-12-20T22:13:53.501Z,100294.53
2018-12-20T22:16:23.379Z,100292.78
2018-12-20T22:18:52.095Z,100286.66
2018-12-20T22:21:20.832Z,100290.02
2018-12-20T22:23:50.195Z,100282.20
2018-12-20T22:26:18.880Z,100281.65
2018-12-20T22:28:47.755Z,100277.75
2018-12-20T22:31:16.482Z,100272.02
2018-12-20T22:33:45.160Z,100272.38
2018-12-20T22:36:13.951Z,100263.66
2018-12-20T22:38:42.647Z,100262.75
2018-12-20T22:41:11.339Z,100259.20
2018-12-20T22:43:40.999Z,100253.08
2018-12-20T22:46:11.187Z,100252.92
2018-12-20T22:48:39.996Z,100250.96
2018-12-20T22:51:08.761Z,100250.76
2018-12-20T22:53:37.451Z,100247.45
2018-12-20T22:56:06.160Z,100249.45
2018-12-20T22:58:34.962Z,100238.41
2018-12-20T23:01:04.797Z,100221.52
2018-12-20T23:03:34.401Z,100210.37
2018-12-20T23:06:04.169Z,100214.00
2018-12-20T23:08:32.941Z,100222.48
2018-12-20T23:11:01.858Z,100213.02
2018-12-20T23:13:30.497Z,100212.73
2018-12-20T23:15:59.545Z,100209.10
2018-12-20T23:18:29.204Z,100208.58
2018-12-20T23:21:04.850Z,100204.09
2018-12-20T23:23:28.395Z,100208.28
2018-12-20T23:25:57.044Z,100206.70
2018-12-20T23:28:25.603Z,100206.63
2018-12-20T23:30:54.263Z,100200.92
2018-12-20T23:33:23.056Z,100214.73
2018-12-20T23:35:51.625Z,100212.02
2018-12-20T23:38:20.237Z,100214.05
2018-12-20T23:40:48.900Z,100219.27
2018-12-20T23:43:17.542Z,100222.27
2018-12-20T23:45:46.245Z,100200.10
2018-12-20T23:48:14.820Z,100203.09
2018-12-20T23:50:43.359Z,100207.47
2018-12-20T23:53:11.927Z,100200.95
2018-12-20T23:55:41.759Z,100199.19
2018-12-20T23:58:10.435Z,100204.40
